Time;durP1;ratioP1;P1;durP2;ratioP2;P2;SDS_P1;SDS_P2;PMS_P1;PMS_P2;Temp;Humidity;BMP_temperature;BMP_pressure;BME280_temperature;BME280_humidity;BME280_pressure;Samples;Min_cycle;Max_cycle;Signal;HPM_P1;HPM_P2
2022/12/09 00:00:56;;;;;;;69.97;31.35;;;;;;;;;;5058117;28;20036;-52
2022/12/09 00:03:23;;;;;;;72.25;31.38;;;;;;;;;;5062253;28;20036;-54
2022/12/09 00:05:49;;;;;;;75.90;32.28;;;;;;;;;;5057764;28;20252;-54
2022/12/09 00:08:15;;;;;;;75.32;31.92;;;;;;;;;;5059257;28;20376;-53
2022/12/09 00:10:43;;;;;;;80.35;33.78;;;;;;;;;;5057587;28;20048;-54
2022/12/09 00:13:09;;;;;;;70.18;30.00;;;;;;;;;;5058854;28;20128;-51
2022/12/09 00:15:39;;;;;;;82.07;31.63;;;-0.50;99.90;;;;;;5055912;28;20056;-55
2022/12/09 00:18:05;;;;;;;66.85;30.23;;;-0.60;99.90;;;;;;5058010;28;20068;-53
2022/12/09 00:20:30;;;;;;;66.65;28.55;;;-0.70;99.90;;;;;;5068323;28;20545;-51
2022/12/09 00:22:57;;;;;;;61.45;26.30;;;;;;;;;;5057270;28;20402;-52
2022/12/09 00:25:22;;;;;;;63.72;27.55;;;-0.90;99.90;;;;;;5060596;28;20044;-52
2022/12/09 00:27:48;;;;;;;65.68;29.35;;;;;;;;;;5056225;28;20029;-52
2022/12/09 00:30:14;;;;;;;51.40;25.50;;;;;;;;;;5040699;28;20044;-52
2022/12/09 00:32:40;;;;;;;57.78;28.10;;;;;;;;;;5060623;28;20077;-54
2022/12/09 00:35:07;;;;;;;59.72;28.65;;;;;;;;;;5057521;28;20037;-54
2022/12/09 00:37:33;;;;;;;49.67;23.33;;;;;;;;;;5043647;28;20036;-54
2022/12/09 00:39:59;;;;;;;48.30;24.15;;;;;;;;;;5056616;28;20045;-55
2022/12/09 00:42:25;;;;;;;57.38;23.33;;;;;;;;;;5059865;28;20037;-53
2022/12/09 00:44:51;;;;;;;135.38;29.63;;;;;;;;;;5056049;28;20044;-51
2022/12/09 00:47:17;;;;;;;136.45;30.58;;;-2.20;99.90;;;;;;5057345;28;20037;-54
2022/12/09 00:49:42;;;;;;;50.17;21.48;;;-2.20;99.90;;;;;;5061190;28;20055;-53
2022/12/09 00:52:08;;;;;;;42.53;20.42;;;;;;;;;;5058719;28;20504;-52
2022/12/09 00:54:34;;;;;;;49.60;20.95;;;;;;;;;;5055092;28;20106;-52
2022/12/09 00:57:01;;;;;;;46.42;18.48;;;;;;;;;;5057997;28;20041;-53
2022/12/09 00:59:27;;;;;;;50.92;20.30;;;;;;;;;;5020045;28;20048;-56
2022/12/09 01:01:53;;;;;;;57.60;18.45;;;;;;;;;;5060231;28;20042;-52
2022/12/09 01:04:19;;;;;;;108.10;25.88;;;;;;;;;;5058240;28;20044;-56
2022/12/09 01:06:45;;;;;;;88.60;20.65;;;;;;;;;;5056938;28;20036;-52
2022/12/09 01:09:12;;;;;;;103.80;23.23;;;;;;;;;;5057995;28;20143;-53
2022/12/09 01:11:38;;;;;;;94.40;23.30;;;-2.70;99.90;;;;;;5056729;28;20110;-53
2022/12/09 01:14:04;;;;;;;94.00;19.65;;;;;;;;;;5066039;28;20475;-52
2022/12/09 01:16:32;;;;;;;118.55;24.00;;;-2.60;99.90;;;;;;5062257;28;20414;-53
2022/12/09 01:18:59;;;;;;;99.03;22.67;;;;;;;;;;5042099;28;20043;-54
2022/12/09 01:21:29;;;;;;;89.70;21.90;;;;;;;;;;5056899;28;20072;-53
2022/12/09 01:23:55;;;;;;;91.78;20.30;;;;;;;;;;5058055;28;20045;-55
2022/12/09 01:26:21;;;;;;;86.32;22.15;;;;;;;;;;5056463;28;20522;-53
2022/12/09 01:28:51;;;;;;;65.57;18.75;;;;;;;;;;5055031;28;20166;-54
2022/12/09 01:31:22;;;;;;;65.38;17.85;;;;;;;;;;5056514;28;20032;-52
2022/12/09 01:33:48;;;;;;;84.20;22.85;;;-2.70;99.90;;;;;;5062033;28;20150;-55
2022/12/09 01:36:18;;;;;;;123.00;30.02;;;-2.50;99.90;;;;;;5061868;28;20162;-55
2022/12/09 01:38:45;;;;;;;106.82;24.52;;;-2.00;99.90;;;;;;5059707;28;20069;-55
2022/12/09 01:41:11;;;;;;;105.85;23.02;;;-2.40;99.90;;;;;;5068406;28;20517;-55
2022/12/09 01:43:45;;;;;;;83.60;22.25;;;-2.30;99.90;;;;;;5037375;28;20047;-55
2022/12/09 01:46:11;;;;;;;125.88;26.45;;;;;;;;;;5058388;28;20031;-53
2022/12/09 01:48:42;;;;;;;95.88;24.33;;;;;;;;;;5059818;28;20079;-52
2022/12/09 01:51:18;;;;;;;100.35;23.88;;;-2.10;99.90;;;;;;5046904;28;20047;-52
2022/12/09 01:53:47;;;;;;;104.97;25.70;;;-2.30;99.90;;;;;;5054356;28;20119;-51
2022/12/09 01:56:21;;;;;;;71.82;24.20;;;;;;;;;;5056994;28;20124;-52
2022/12/09 01:58:47;;;;;;;105.85;28.10;;;;;;;;;;5035743;28;20537;-51
2022/12/09 02:01:13;;;;;;;75.63;20.77;;;;;;;;;;5055643;28;20064;-53
2022/12/09 02:03:39;;;;;;;113.50;28.33;;;;;;;;;;5060188;28;20079;-52
2022/12/09 02:06:05;;;;;;;114.70;30.25;;;;;;;;;;5054894;28;20064;-53
2022/12/09 02:08:31;;;;;;;94.13;27.23;;;;;;;;;;5065162;28;20036;-51
2022/12/09 02:11:09;;;;;;;92.43;28.40;;;-2.30;99.90;;;;;;5036645;28;20040;-51
2022/12/09 02:14:07;;;;;;;55.53;22.38;;;;;;;;;;5057545;28;20045;-52
2022/12/09 02:16:40;;;;;;;64.10;23.50;;;;;;;;;;4998456;28;20049;-51
2022/12/09 02:19:12;;;;;;;54.47;22.90;;;;;;;;;;5060782;28;20051;-52
2022/12/09 02:21:54;;;;;;;49.42;24.60;;;-2.00;99.90;;;;;;5054387;28;20130;-51
2022/12/09 02:24:24;;;;;;;48.80;19.42;;;;;;;;;;5038303;28;20053;-55
2022/12/09 02:26:59;;;;;;;30.95;16.85;;;-2.20;99.90;;;;;;5051523;28;20401;-51
2022/12/09 02:29:49;;;;;;;33.17;17.50;;;-2.20;99.90;;;;;;5056175;28;20036;-51
2022/12/09 02:32:15;;;;;;;30.02;17.58;;;;;;;;;;5051834;28;20036;-54
2022/12/09 02:34:50;;;;;;;33.70;16.98;;;;;;;;;;5056807;28;20502;-50
2022/12/09 02:37:21;;;;;;;30.50;14.80;;;-2.90;99.90;;;;;;5040686;28;20453;-48
2022/12/09 02:39:47;;;;;;;27.88;15.20;;;;;;;;;;5055165;28;20032;-48
2022/12/09 02:42:15;;;;;;;32.28;18.30;;;;;;;;;;5057290;28;20033;-54
2022/12/09 02:44:42;;;;;;;31.25;15.68;;;;;;;;;;5055466;28;20037;-51
2022/12/09 02:47:09;;;;;;;30.63;15.73;;;;;;;;;;5055376;28;20120;-51
2022/12/09 02:49:37;;;;;;;28.60;15.00;;;-3.00;99.90;;;;;;5035452;28;20037;-51
2022/12/09 02:52:03;;;;;;;33.63;15.88;;;-3.00;99.90;;;;;;5063035;28;20376;-51
2022/12/09 02:54:30;;;;;;;27.65;15.25;;;;;;;;;;5060877;28;20059;-51
2022/12/09 02:56:58;;;;;;;32.15;15.63;;;;;;;;;;5056156;28;20037;-54
2022/12/09 02:59:24;;;;;;;30.42;16.23;;;;;;;;;;5060532;28;20036;-51
2022/12/09 03:02:20;;;;;;;31.67;15.02;;;-3.00;99.90;;;;;;5060451;28;20041;-52
2022/12/09 03:04:48;;;;;;;32.22;16.30;;;;;;;;;;5053114;28;20033;-52
2022/12/09 03:07:20;;;;;;;38.63;18.10;;;;;;;;;;5041220;28;20082;-52
2022/12/09 03:09:48;;;;;;;31.63;16.13;;;;;;;;;;5051625;28;20072;-50
2022/12/09 03:12:18;;;;;;;35.17;17.08;;;-3.00;99.90;;;;;;5057741;28;20036;-52
2022/12/09 03:14:48;;;;;;;32.65;16.00;;;;;;;;;;5051076;28;20587;-54
2022/12/09 03:17:17;;;;;;;38.25;17.58;;;;;;;;;;5059601;28;20040;-54
2022/12/09 03:19:54;;;;;;;31.33;15.40;;;;;;;;;;5062342;28;20040;-51
2022/12/09 03:22:22;;;;;;;34.47;16.60;;;;;;;;;;5053051;28;20063;-53
2022/12/09 03:24:53;;;;;;;41.78;17.48;;;;;;;;;;5055921;28;20044;-50
2022/12/09 03:27:24;;;;;;;35.15;17.50;;;;;;;;;;5070481;28;20036;-51
2022/12/09 03:29:51;;;;;;;40.97;18.73;;;;;;;;;;5061232;28;20040;-51
2022/12/09 03:32:20;;;;;;;35.10;17.15;;;-2.10;99.90;;;;;;5060171;28;20029;-50
2022/12/09 03:34:47;;;;;;;37.97;16.77;;;;;;;;;;5043333;28;20041;-51
2022/12/09 03:37:16;;;;;;;39.95;17.70;;;-2.00;99.90;;;;;;5053282;28;20544;-50
2022/12/09 03:39:43;;;;;;;37.15;16.67;;;;;;;;;;5055845;28;20037;-54
2022/12/09 03:42:19;;;;;;;35.75;16.02;;;-2.00;99.90;;;;;;5060786;28;20052;-51
2022/12/09 03:44:54;;;;;;;39.50;17.38;;;-2.00;99.90;;;;;;5054080;28;20037;-51
2022/12/09 03:47:20;;;;;;;37.00;16.45;;;;;;;;;;5059413;28;20045;-50
2022/12/09 03:49:46;;;;;;;37.28;15.35;;;-2.00;99.90;;;;;;5061259;28;20068;-50
2022/12/09 03:52:20;;;;;;;32.30;15.57;;;-1.80;99.90;;;;;;5057128;28;20521;-52
2022/12/09 03:54:52;;;;;;;32.25;14.93;;;-1.80;99.90;;;;;;5060534;28;20079;-53
2022/12/09 03:57:19;;;;;;;30.13;14.75;;;;;;;;;;5038046;28;20120;-53
2022/12/09 03:59:49;;;;;;;33.10;15.25;;;;;;;;;;5059321;28;20123;-53
2022/12/09 04:02:16;;;;;;;34.42;16.35;;;;;;;;;;5060809;28;20040;-52
2022/12/09 04:04:42;;;;;;;35.20;16.23;;;;;;;;;;5062330;28;20048;-54
2022/12/09 04:07:08;;;;;;;37.35;16.48;;;;;;;;;;5059254;28;20037;-50
2022/12/09 04:09:34;;;;;;;32.75;15.48;;;;;;;;;;5039743;28;20074;-49
2022/12/09 04:12:00;;;;;;;27.45;14.32;;;;;;;;;;5063446;28;20465;-50
2022/12/09 04:14:26;;;;;;;35.33;16.63;;;;;;;;;;5071845;28;20211;-51
2022/12/09 04:16:52;;;;;;;36.95;15.32;;;;;;;;;;5057244;28;20450;-49
2022/12/09 04:19:18;;;;;;;34.72;15.98;;;-1.90;99.90;;;;;;5061096;28;20510;-53
2022/12/09 04:21:44;;;;;;;32.58;16.15;;;-1.90;99.90;;;;;;5058156;28;20040;-52
2022/12/09 04:24:10;;;;;;;35.92;15.98;;;;;;;;;;5042258;28;20033;-51
2022/12/09 04:26:36;;;;;;;36.47;15.40;;;-1.70;99.90;;;;;;5056707;28;20074;-50
2022/12/09 04:29:02;;;;;;;31.52;15.10;;;;;;;;;;5057285;28;20087;-50
2022/12/09 04:31:28;;;;;;;36.00;15.23;;;;;;;;;;5055568;28;20036;-49
2022/12/09 04:33:54;;;;;;;33.80;14.90;;;;;;;;;;5068311;28;20228;-51
2022/12/09 04:36:20;;;;;;;30.30;15.13;;;;;;;;;;5058963;28;20407;-50
2022/12/09 04:38:46;;;;;;;41.55;16.08;;;;;;;;;;5055782;28;20261;-50
2022/12/09 04:41:13;;;;;;;35.08;15.80;;;;;;;;;;5064210;28;20043;-50
2022/12/09 04:43:39;;;;;;;42.90;16.60;;;;;;;;;;5056180;28;20126;-48
2022/12/09 04:46:07;;;;;;;34.53;15.88;;;;;;;;;;5039112;28;20053;-49
2022/12/09 04:48:33;;;;;;;40.35;17.10;;;;;;;;;;5061255;28;20353;-50
2022/12/09 04:50:59;;;;;;;30.63;15.40;;;;;;;;;;5056280;28;20322;-50
2022/12/09 04:53:26;;;;;;;39.47;15.88;;;;;;;;;;5041541;28;20049;-50
2022/12/09 04:56:02;;;;;;;32.80;16.60;;;;;;;;;;5068744;28;20067;-51
2022/12/09 04:58:28;;;;;;;31.23;14.50;;;;;;;;;;5057598;28;20060;-48
2022/12/09 05:00:54;;;;;;;37.22;16.27;;;;;;;;;;5036241;28;20049;-53
2022/12/09 05:03:20;;;;;;;39.70;16.50;;;;;;;;;;5056887;28;20040;-49
2022/12/09 05:05:46;;;;;;;38.53;17.08;;;;;;;;;;5060932;28;20077;-51
2022/12/09 05:08:12;;;;;;;32.63;15.20;;;;;;;;;;5055066;28;20506;-50
2022/12/09 05:10:39;;;;;;;36.65;16.25;;;;;;;;;;5058747;28;20112;-50
2022/12/09 05:13:05;;;;;;;36.53;16.88;;;;;;;;;;5054645;28;20041;-52
2022/12/09 05:15:31;;;;;;;35.17;16.23;;;;;;;;;;5057695;28;20070;-53
2022/12/09 05:17:58;;;;;;;35.60;16.00;;;;;;;;;;5035692;28;20097;-50
2022/12/09 05:20:27;;;;;;;39.45;18.88;;;-1.00;99.90;;;;;;5056483;28;20049;-53
2022/12/09 05:22:54;;;;;;;42.17;18.73;;;;;;;;;;5043079;28;20039;-49
2022/12/09 05:25:20;;;;;;;35.53;16.50;;;;;;;;;;5037442;28;20056;-51
2022/12/09 05:27:46;;;;;;;36.05;17.48;;;;;;;;;;5065437;28;20036;-51
2022/12/09 05:30:12;;;;;;;42.72;18.00;;;-0.90;99.90;;;;;;5054755;28;20102;-50
2022/12/09 05:32:38;;;;;;;40.78;18.08;;;;;;;;;;5057556;28;20068;-49
2022/12/09 05:35:05;;;;;;;39.95;17.60;;;;;;;;;;5059283;28;20050;-50
2022/12/09 05:37:31;;;;;;;44.47;18.42;;;;;;;;;;5054553;28;20056;-50
2022/12/09 05:39:57;;;;;;;38.22;17.45;;;;;;;;;;5056130;28;20128;-50
2022/12/09 05:42:23;;;;;;;39.03;19.23;;;;;;;;;;5037294;28;20136;-50
2022/12/09 05:44:49;;;;;;;44.97;18.67;;;;;;;;;;5053338;28;20029;-51
2022/12/09 05:47:15;;;;;;;43.30;19.92;;;;;;;;;;5061423;28;20371;-52
2022/12/09 05:49:41;;;;;;;43.90;18.35;;;;;;;;;;5053262;28;20047;-52
2022/12/09 05:52:09;;;;;;;51.30;20.33;;;;;;;;;;5057429;28;20072;-53
2022/12/09 05:54:35;;;;;;;54.83;21.55;;;;;;;;;;5054038;28;20553;-52
2022/12/09 05:57:02;;;;;;;44.83;20.23;;;-0.50;99.90;;;;;;5062515;28;20036;-52
2022/12/09 05:59:28;;;;;;;44.65;19.55;;;;;;;;;;5039071;28;20052;-52
2022/12/09 06:01:55;;;;;;;51.00;21.55;;;;;;;;;;5053519;28;20129;-52
2022/12/09 06:04:20;;;;;;;46.97;20.90;;;-0.50;99.90;;;;;;5054970;28;20029;-52
2022/12/09 06:06:47;;;;;;;46.70;20.85;;;;;;;;;;5051829;28;20585;-50
2022/12/09 06:09:13;;;;;;;47.05;20.38;;;;;;;;;;5058365;28;20112;-50
2022/12/09 06:11:39;;;;;;;44.65;20.70;;;;;;;;;;5032902;28;20044;-51
2022/12/09 06:14:07;;;;;;;52.95;21.02;;;;;;;;;;5042613;28;20067;-50
2022/12/09 06:16:33;;;;;;;51.85;21.23;;;;;;;;;;5057801;28;20163;-54
2022/12/09 06:18:59;;;;;;;53.42;22.55;;;;;;;;;;5050906;28;20033;-51
2022/12/09 06:21:25;;;;;;;53.70;23.10;;;;;;;;;;5031442;28;20041;-53
2022/12/09 06:23:52;;;;;;;49.08;20.55;;;;;;;;;;5048719;28;20044;-56
2022/12/09 06:26:28;;;;;;;57.33;23.50;;;;;;;;;;5031860;28;20045;-57
2022/12/09 06:28:54;;;;;;;49.85;21.38;;;-0.90;99.90;;;;;;5049408;28;20404;-54
2022/12/09 06:31:20;;;;;;;59.53;23.08;;;;;;;;;;5052400;28;20033;-56
2022/12/09 06:33:46;;;;;;;58.20;23.98;;;;;;;;;;5031698;28;20098;-50
2022/12/09 06:36:12;;;;;;;65.43;25.25;;;;;;;;;;5049475;28;20502;-51
2022/12/09 06:38:39;;;;;;;70.97;26.38;;;;;;;;;;5055150;28;20078;-55
2022/12/09 06:41:13;;;;;;;65.40;27.67;;;-0.50;99.90;;;;;;5051356;28;20037;-53
2022/12/09 06:43:40;;;;;;;67.80;27.63;;;;;;;;;;5049866;28;20689;-54
2022/12/09 06:46:17;;;;;;;84.55;30.58;;;-0.80;99.90;;;;;;5031578;28;20047;-57
2022/12/09 06:48:43;;;;;;;85.32;30.52;;;;;;;;;;5049257;28;20282;-56
2022/12/09 06:51:10;;;;;;;78.93;30.30;;;;;;;;;;5050401;28;20049;-53
2022/12/09 06:53:36;;;;;;;85.00;29.75;;;;;;;;;;5053403;28;20403;-56
2022/12/09 06:56:03;;;;;;;80.68;33.15;;;;;;;;;;5051770;28;20041;-55
2022/12/09 06:58:29;;;;;;;84.88;33.80;;;;;;;;;;5057299;28;20036;-57
2022/12/09 07:00:55;;;;;;;90.22;31.83;;;-0.30;99.90;;;;;;5041861;28;20102;-53
2022/12/09 07:03:21;;;;;;;97.88;32.60;;;;;;;;;;5055755;28;20403;-56
2022/12/09 07:05:47;;;;;;;92.32;33.33;;;;;;;;;;5056553;28;20146;-53
2022/12/09 07:08:13;;;;;;;95.22;35.30;;;;;;;;;;5053210;28;20054;-56
2022/12/09 07:10:40;;;;;;;92.70;35.83;;;;;;;;;;5054148;28;20132;-52
2022/12/09 07:13:06;;;;;;;96.22;34.72;;;;;;;;;;5053002;28;20048;-55
2022/12/09 07:15:32;;;;;;;98.55;35.92;;;;;;;;;;5052740;28;20498;-55
2022/12/09 07:17:57;;;;;;;103.63;36.85;;;-0.20;99.90;;;;;;5051139;28;20037;-54
2022/12/09 07:20:23;;;;;;;98.45;36.60;;;-0.10;99.90;;;;;;5053487;28;20052;-57
2022/12/09 07:22:49;;;;;;;98.93;36.13;;;;;;;;;;5054522;28;20049;-56
2022/12/09 07:25:15;;;;;;;97.90;36.00;;;;;;;;;;5056523;28;20043;-52
2022/12/09 07:27:40;;;;;;;99.90;36.15;;;-0.10;99.90;;;;;;5052671;28;20037;-51
2022/12/09 07:30:07;;;;;;;103.20;36.70;;;;;;;;;;5052888;28;20036;-54
2022/12/09 07:32:33;;;;;;;93.13;36.30;;;;;;;;;;5052497;28;20517;-57
2022/12/09 07:35:02;;;;;;;101.63;35.65;;;;;;;;;;5054625;28;20041;-54
2022/12/09 07:37:28;;;;;;;92.22;35.70;;;;;;;;;;5050081;28;20037;-54
2022/12/09 07:39:54;;;;;;;91.28;36.17;;;;;;;;;;5055529;28;20059;-57
2022/12/09 07:42:20;;;;;;;90.57;33.00;;;;;;;;;;5065276;28;20036;-56
2022/12/09 07:44:48;;;;;;;89.63;35.15;;;;;;;;;;5060770;28;20032;-57
2022/12/09 07:47:14;;;;;;;97.97;37.38;;;;;;;;;;5066276;28;20037;-57
2022/12/09 07:49:40;;;;;;;97.75;38.08;;;;;;;;;;5060097;28;20105;-53
2022/12/09 07:52:06;;;;;;;81.40;34.00;;;;;;;;;;5067359;28;20521;-53
2022/12/09 07:54:32;;;;;;;94.28;34.55;;;;;;;;;;5059144;28;20037;-54
2022/12/09 07:56:58;;;;;;;100.35;36.00;;;-0.80;99.90;;;;;;5046966;28;20129;-53
2022/12/09 07:59:23;;;;;;;91.38;35.95;;;-0.80;99.90;;;;;;5071877;28;20064;-52
2022/12/09 08:01:49;;;;;;;94.32;36.97;;;;;;;;;;5058990;28;20174;-52
2022/12/09 08:04:15;;;;;;;99.57;36.38;;;;;;;;;;5071074;28;20508;-54
2022/12/09 08:06:42;;;;;;;89.30;35.63;;;;;;;;;;5059525;28;20474;-54
2022/12/09 08:09:09;;;;;;;94.47;34.03;;;;;;;;;;5069343;28;20036;-53
2022/12/09 08:11:35;;;;;;;106.47;39.13;;;;;;;;;;5066104;28;20101;-51
2022/12/09 08:14:03;;;;;;;115.53;40.67;;;;;;;;;;5068748;28;20090;-51
2022/12/09 08:16:29;;;;;;;116.18;41.67;;;;;;;;;;5064944;28;20051;-55
2022/12/09 08:18:55;;;;;;;113.15;42.85;;;;;;;;;;5064119;28;20076;-50
2022/12/09 08:21:23;;;;;;;240.40;56.90;;;;;;;;;;5070148;28;20123;-57
2022/12/09 08:23:49;;;;;;;247.70;57.45;;;;;;;;;;5054758;28;20037;-55
2022/12/09 08:26:17;;;;;;;429.60;83.00;;;-0.60;99.90;;;;;;5055893;28;20131;-55
2022/12/09 08:28:43;;;;;;;458.98;87.75;;;;;;;;;;5058343;28;20499;-54
2022/12/09 08:31:15;;;;;;;528.90;94.20;;;-0.20;99.90;;;;;;5057058;28;20036;-55
2022/12/09 08:33:44;;;;;;;447.98;78.47;;;;;;;;;;5060926;28;20044;-52
2022/12/09 08:36:13;;;;;;;362.70;67.85;;;-0.10;99.90;;;;;;5054879;28;20126;-53
2022/12/09 08:38:39;;;;;;;375.55;76.90;;;;;;;;;;5056105;28;20032;-51
2022/12/09 08:41:12;;;;;;;380.90;75.22;;;-0.40;99.90;;;;;;5055242;28;20052;-50
2022/12/09 08:43:39;;;;;;;329.13;66.03;;;;;;;;;;5060057;28;20055;-54
2022/12/09 08:46:05;;;;;;;348.65;72.38;;;;;;;;;;5058066;28;20033;-52
2022/12/09 08:48:31;;;;;;;366.35;70.88;;;;;;;;;;5067514;28;20033;-57
2022/12/09 08:50:57;;;;;;;222.57;53.22;;;;;;;;;;5057374;28;20037;-56
2022/12/09 08:53:23;;;;;;;240.82;55.30;;;;;;;;;;5060987;28;20091;-56
2022/12/09 08:55:49;;;;;;;204.65;49.85;;;;;;;;;;5056581;28;20526;-55
2022/12/09 08:58:15;;;;;;;211.98;53.25;;;;;;;;;;5058233;28;20100;-54
2022/12/09 09:00:40;;;;;;;330.77;70.35;;;-0.20;99.90;;;;;;5038409;28;20111;-54
2022/12/09 09:03:07;;;;;;;268.48;56.17;;;;;;;;;;5063145;28;20036;-57
2022/12/09 09:05:33;;;;;;;300.50;62.53;;;;;;;;;;5064893;28;20059;-54
2022/12/09 09:07:58;;;;;;;375.67;71.68;;;-0.20;99.90;;;;;;5056487;28;20028;-57
2022/12/09 09:10:24;;;;;;;412.98;77.15;;;-0.10;99.90;;;;;;5067171;28;20048;-54
2022/12/09 09:12:50;;;;;;;231.98;54.33;;;;;;;;;;5053275;28;20041;-56
2022/12/09 09:15:16;;;;;;;235.15;55.22;;;;;;;;;;5064771;28;20037;-54
2022/12/09 09:17:42;;;;;;;289.30;62.28;;;;;;;;;;5057791;28;20075;-55
2022/12/09 09:20:09;;;;;;;233.52;57.22;;;;;;;;;;5071119;28;20068;-52
2022/12/09 09:22:35;;;;;;;391.88;77.90;;;;;;;;;;5070295;28;20490;-54
2022/12/09 09:25:01;;;;;;;319.98;65.85;;;;;;;;;;5066234;28;20082;-50
2022/12/09 09:27:27;;;;;;;253.88;54.85;;;;;;;;;;5060465;28;20044;-54
2022/12/09 09:29:53;;;;;;;204.18;49.92;;;;;;;;;;5067644;28;20037;-55
2022/12/09 09:32:18;;;;;;;187.15;46.13;;;0.10;99.90;;;;;;5058288;28;20044;-54
2022/12/09 09:34:44;;;;;;;323.48;65.53;;;0.10;99.90;;;;;;5057389;28;20044;-54
2022/12/09 09:37:10;;;;;;;242.73;55.28;;;0.20;99.90;;;;;;5063208;28;20041;-55
2022/12/09 09:39:36;;;;;;;295.90;62.42;;;;;;;;;;5056385;28;20081;-57
2022/12/09 09:42:04;;;;;;;289.02;58.92;;;;;;;;;;5057460;28;20107;-57
2022/12/09 09:44:38;;;;;;;400.73;75.50;;;0.30;99.90;;;;;;5053648;28;20037;-54
2022/12/09 09:47:24;;;;;;;349.33;64.95;;;;;;;;;;5042404;28;20032;-54
2022/12/09 09:50:00;;;;;;;373.60;68.50;;;0.90;99.90;;;;;;5055891;28;20094;-56
2022/12/09 09:52:27;;;;;;;346.15;62.80;;;;;;;;;;5057275;28;20413;-52
2022/12/09 09:54:53;;;;;;;261.40;54.15;;;;;;;;;;5041040;28;20037;-54
2022/12/09 09:57:25;;;;;;;207.90;45.65;;;;;;;;;;5058792;28;20114;-53
2022/12/09 10:00:10;;;;;;;251.13;53.33;;;0.20;99.90;;;;;;5050888;28;20060;-51
2022/12/09 10:02:47;;;;;;;346.48;61.95;;;;;;;;;;5055401;28;20036;-56
2022/12/09 10:05:16;;;;;;;287.90;56.72;;;;;;;;;;5058259;28;20028;-56
2022/12/09 10:07:43;;;;;;;356.98;66.00;;;;;;;;;;5055966;28;20052;-55
2022/12/09 10:10:38;;;;;;;258.63;51.17;;;0.00;99.90;;;;;;5057442;28;20032;-54
2022/12/09 10:13:22;;;;;;;273.20;52.33;;;0.30;99.90;;;;;;5054265;28;20033;-53
2022/12/09 10:15:57;;;;;;;243.55;49.97;;;0.20;99.90;;;;;;5056450;28;20384;-53
2022/12/09 10:18:28;;;;;;;187.23;45.00;;;;;;;;;;5052739;28;20120;-52
2022/12/09 10:20:54;;;;;;;214.88;46.28;;;0.50;99.90;;;;;;5060622;28;20036;-51
2022/12/09 10:23:20;;;;;;;213.43;46.25;;;;;;;;;;5063448;28;20059;-55
2022/12/09 10:25:56;;;;;;;261.35;48.97;;;;;;;;;;5043314;28;20425;-53
2022/12/09 10:28:26;;;;;;;219.52;47.78;;;;;;;;;;5063861;28;20505;-54
2022/12/09 10:30:53;;;;;;;196.15;43.08;;;;;;;;;;5045908;28;20032;-57
2022/12/09 10:33:32;;;;;;;237.07;48.28;;;0.40;99.90;;;;;;5065539;28;20516;-53
2022/12/09 10:35:58;;;;;;;137.13;38.83;;;;;;;;;;5057921;28;20036;-52
2022/12/09 10:38:25;;;;;;;143.05;35.97;;;;;;;;;;5038215;28;20048;-52
2022/12/09 10:41:10;;;;;;;105.60;33.28;;;;;;;;;;5064006;28;20032;-55
2022/12/09 10:43:37;;;;;;;147.68;38.78;;;;;;;;;;5064635;28;20158;-55
2022/12/09 10:46:08;;;;;;;151.55;38.83;;;;;;;;;;5063244;28;20040;-52
2022/12/09 10:48:36;;;;;;;194.20;45.67;;;;;;;;;;5067201;28;20052;-52
2022/12/09 10:51:25;;;;;;;249.85;51.55;;;;;;;;;;5050519;28;20041;-57
2022/12/09 10:53:51;;;;;;;259.13;50.63;;;;;;;;;;5035609;28;20057;-56
2022/12/09 10:56:19;;;;;;;210.05;44.78;;;;;;;;;;5049779;28;20051;-53
2022/12/09 10:58:45;;;;;;;194.65;44.42;;;;;;;;;;5031685;28;20049;-56
2022/12/09 11:01:15;;;;;;;187.55;43.03;;;;;;;;;;5048694;28;20047;-57
2022/12/09 11:03:49;;;;;;;199.18;47.20;;;;;;;;;;5049067;28;20029;-57
2022/12/09 11:06:15;;;;;;;197.60;45.30;;;;;;;;;;5050797;28;20572;-54
2022/12/09 11:08:50;;;;;;;184.80;41.50;;;0.40;99.90;;;;;;5050008;28;20593;-56
2022/12/09 11:11:16;;;;;;;191.02;45.60;;;;;;;;;;5049120;28;20087;-57
2022/12/09 11:13:42;;;;;;;150.77;41.63;;;;;;;;;;5049299;28;20037;-56
2022/12/09 11:16:09;;;;;;;137.90;38.83;;;;;;;;;;5048708;28;20534;-55
2022/12/09 11:18:42;;;;;;;193.77;48.33;;;0.80;99.90;;;;;;5048369;28;20061;-56
2022/12/09 11:21:29;;;;;;;134.32;38.95;;;;;;;;;;5048338;28;20041;-55
2022/12/09 11:23:55;;;;;;;166.60;41.67;;;;;;;;;;5049530;28;20522;-54
2022/12/09 11:26:22;;;;;;;138.60;37.60;;;;;;;;;;5049928;28;20068;-54
2022/12/09 11:29:03;;;;;;;174.57;38.97;;;0.60;99.90;;;;;;5048791;28;20636;-54
2022/12/09 11:31:30;;;;;;;229.43;46.50;;;;;;;;;;5049373;28;20056;-58
2022/12/09 11:33:58;;;;;;;180.27;41.40;;;;;;;;;;5032492;28;20048;-55
2022/12/09 11:36:33;;;;;;;165.73;43.08;;;;;;;;;;5050879;28;20048;-54
2022/12/09 11:39:15;;;;;;;230.05;49.97;;;;;;;;;;5053027;28;20033;-51
2022/12/09 11:44:31;;;;;;;261.50;53.38;;;;;;;;;;5051910;28;20045;-55
2022/12/09 11:46:59;;;;;;;213.15;49.38;;;;;;;;;;5034762;28;20487;-55
2022/12/09 11:49:26;;;;;;;169.20;42.20;;;;;;;;;;5018452;28;20502;-55
2022/12/09 11:52:24;;;;;;;146.93;37.08;;;1.00;99.90;;;;;;5056683;28;20517;-59
2022/12/09 11:54:53;;;;;;;186.88;43.33;;;;;;;;;;5053045;28;20528;-55
2022/12/09 11:57:39;;;;;;;172.48;42.70;;;;;;;;;;5054243;28;20056;-57
2022/12/09 12:00:14;;;;;;;190.85;46.47;;;;;;;;;;5040537;28;20132;-57
2022/12/09 12:02:43;;;;;;;230.70;52.20;;;;;;;;;;5053199;28;20072;-56
2022/12/09 12:05:20;;;;;;;237.70;51.20;;;;;;;;;;5052409;28;20567;-57
2022/12/09 12:07:52;;;;;;;150.13;37.85;;;;;;;;;;5052184;28;20037;-55
2022/12/09 12:10:45;;;;;;;154.45;39.58;;;1.50;99.90;;;;;;5052583;28;20059;-58
2022/12/09 12:13:16;;;;;;;204.40;43.90;;;;;;;;;;5042075;28;20106;-58
2022/12/09 12:15:42;;;;;;;227.80;49.50;;;;;;;;;;5051975;28;20076;-58
2022/12/09 12:18:12;;;;;;;176.30;42.83;;;;;;;;;;5056192;28;20072;-55
2022/12/09 12:20:59;;;;;;;179.30;41.55;;;1.60;99.90;;;;;;5047854;28;20029;-55
2022/12/09 12:23:34;;;;;;;177.32;39.72;;;;;;;;;;5063534;28;20091;-59
2022/12/09 12:26:09;;;;;;;171.32;40.50;;;;;;;;;;5055145;28;20086;-55
2022/12/09 12:28:47;;;;;;;134.85;39.15;;;;;;;;;;5051662;28;20045;-57
2022/12/09 12:31:28;;;;;;;176.05;44.30;;;;;;;;;;5053362;28;20049;-60
2022/12/09 12:33:57;;;;;;;177.15;44.13;;;;;;;;;;5053060;28;20052;-58
2022/12/09 12:36:37;;;;;;;143.13;39.03;;;;;;;;;;5038553;28;20414;-58
2022/12/09 12:39:25;;;;;;;195.65;47.45;;;;;;;;;;5033288;28;20490;-56
2022/12/09 12:41:56;;;;;;;172.30;40.40;;;;;;;;;;5051485;28;20037;-53
2022/12/09 12:47:22;;;;;;;193.48;45.60;;;1.20;99.90;;;;;;5055684;28;20386;-56
2022/12/09 12:50:06;;;;;;;230.90;49.55;;;0.60;99.90;;;;;;5063945;28;20041;-55
2022/12/09 12:52:36;;;;;;;121.60;34.10;;;;;;;;;;5065052;28;20036;-57
2022/12/09 12:55:27;;;;;;;190.32;41.22;;;0.60;99.90;;;;;;5066592;28;20363;-55
2022/12/09 12:57:53;;;;;;;122.85;35.25;;;;;;;;;;5067306;28;20412;-56
2022/12/09 13:00:24;;;;;;;289.58;52.50;;;;;;;;;;5064011;28;20044;-57
2022/12/09 13:03:22;;;;;;;208.38;43.65;;;1.70;99.90;;;;;;5059815;28;20044;-58
2022/12/09 13:05:51;;;;;;;264.40;46.67;;;;;;;;;;5064006;28;20719;-53
2022/12/09 13:08:25;;;;;;;207.13;46.33;;;1.20;99.90;;;;;;5060600;28;20163;-54
2022/12/09 13:10:56;;;;;;;288.63;54.75;;;;;;;;;;5061695;28;20453;-54
2022/12/09 13:13:42;;;;;;;263.73;52.45;;;;;;;;;;5066794;28;20536;-50
2022/12/09 13:16:22;;;;;;;327.45;63.75;;;1.80;99.90;;;;;;5041252;28;20059;-54
2022/12/09 13:18:49;;;;;;;296.20;60.03;;;;;;;;;;5065524;28;20044;-55
2022/12/09 13:21:15;;;;;;;344.60;68.03;;;;;;;;;;5060453;28;20055;-54
2022/12/09 13:24:00;;;;;;;321.77;60.47;;;;;;;;;;5062787;28;20044;-57
2022/12/09 13:26:53;;;;;;;262.48;57.70;;;1.60;99.90;;;;;;5059942;28;20123;-54
2022/12/09 13:29:37;;;;;;;269.63;59.15;;;1.30;99.90;;;;;;5066403;28;20411;-54
2022/12/09 13:32:15;;;;;;;318.60;66.80;;;1.50;99.90;;;;;;5048501;28;20040;-53
2022/12/09 13:34:50;;;;;;;212.80;49.25;;;;;;;;;;5061247;28;20036;-54
2022/12/09 13:37:34;;;;;;;237.40;58.78;;;;;;;;;;5070578;28;20040;-53
2022/12/09 13:40:01;;;;;;;194.65;52.88;;;1.30;99.90;;;;;;5069249;28;20171;-55
2022/12/09 13:45:31;;;;;;;185.75;53.33;;;;;;;;;;5068094;28;20453;-51
2022/12/09 13:48:02;;;;;;;179.63;52.27;;;;;;;;;;5070272;28;20367;-54
2022/12/09 13:50:38;;;;;;;161.75;49.85;;;;;;;;;;5058701;28;20040;-57
2022/12/09 13:53:23;;;;;;;159.02;51.13;;;;;;;;;;5065659;28;20040;-54
2022/12/09 13:56:06;;;;;;;137.98;44.47;;;1.50;99.90;;;;;;5058943;28;20403;-55
2022/12/09 13:58:38;;;;;;;129.15;44.13;;;;;;;;;;5057369;28;20518;-56
2022/12/09 14:01:14;;;;;;;129.85;45.45;;;;;;;;;;5065027;28;20263;-52
2022/12/09 14:04:00;;;;;;;118.35;42.15;;;;;;;;;;5057590;28;20039;-53